Time;durP1;ratioP1;P1;durP2;ratioP2;P2;SDS_P1;SDS_P2;PMS_P1;PMS_P2;Temp;Humidity;BMP_temperature;BMP_pressure;BME280_temperature;BME280_humidity;BME280_pressure;Samples;Min_cycle;Max_cycle;Signal;HPM_P1;HPM_P2
2023/02/12 00:00:40;;;;;;;1.73;1.63;;;1.60;60.60;;;;;;5004977;28;20200;-69
2023/02/12 00:03:06;;;;;;;0.87;0.87;;;1.60;60.60;;;;;;5004578;28;20215;-70
2023/02/12 00:05:32;;;;;;;0.80;0.80;;;1.60;60.80;;;;;;5006991;28;20737;-70
2023/02/12 00:07:58;;;;;;;1.53;1.20;;;1.60;60.70;;;;;;5006064;28;20671;-70
2023/02/12 00:10:24;;;;;;;3.17;1.00;;;1.60;60.90;;;;;;5001474;28;20220;-69
2023/02/12 00:12:52;;;;;;;0.93;0.93;;;1.70;60.60;;;;;;5005395;28;20235;-70
2023/02/12 00:15:18;;;;;;;1.50;1.43;;;1.70;60.40;;;;;;5005835;28;20170;-70
2023/02/12 00:17:43;;;;;;;1.03;1.03;;;1.70;60.30;;;;;;5007776;28;20185;-70
2023/02/12 00:20:10;;;;;;;1.17;1.10;;;1.70;60.30;;;;;;5016306;28;20180;-70
2023/02/12 00:22:35;;;;;;;1.00;0.93;;;1.70;60.40;;;;;;5015138;28;20197;-70
2023/02/12 00:25:01;;;;;;;1.07;1.07;;;1.70;60.50;;;;;;5007675;28;20255;-70
2023/02/12 00:27:27;;;;;;;3.03;1.40;;;1.70;60.60;;;;;;5013143;28;20181;-70
2023/02/12 00:29:52;;;;;;;2.00;1.40;;;1.70;60.40;;;;;;4995524;28;20292;-70
2023/02/12 00:32:18;;;;;;;1.20;1.20;;;1.70;60.10;;;;;;5022656;28;20196;-69
2023/02/12 00:34:47;;;;;;;1.47;1.00;;;1.80;60.20;;;;;;5007045;28;20266;-70
2023/02/12 00:37:13;;;;;;;1.10;0.97;;;1.80;60.20;;;;;;5015700;28;20184;-70
2023/02/12 00:39:39;;;;;;;7.17;1.67;;;1.70;60.10;;;;;;5013805;28;20247;-69
2023/02/12 00:42:05;;;;;;;1.83;1.33;;;1.70;60.20;;;;;;5008336;28;21000;-70
2023/02/12 00:44:30;;;;;;;1.50;1.50;;;1.70;60.20;;;;;;5007603;28;20180;-68
2023/02/12 00:46:56;;;;;;;1.60;1.37;;;1.70;60.30;;;;;;5005952;28;20196;-68
2023/02/12 00:49:23;;;;;;;1.00;1.00;;;1.70;60.10;;;;;;5013890;28;20217;-70
2023/02/12 00:51:49;;;;;;;1.30;1.20;;;1.70;60.20;;;;;;5015643;28;20580;-70
2023/02/12 00:54:15;;;;;;;1.30;1.20;;;1.70;60.20;;;;;;5015026;28;20181;-69
2023/02/12 00:56:40;;;;;;;0.87;0.87;;;1.80;60.20;;;;;;5012401;28;20223;-70
2023/02/12 00:59:06;;;;;;;0.80;0.70;;;1.80;60.40;;;;;;5024573;28;20220;-70
2023/02/12 01:01:32;;;;;;;1.10;1.10;;;1.80;60.30;;;;;;5011064;28;20691;-70
2023/02/12 01:03:58;;;;;;;1.00;0.87;;;1.80;60.20;;;;;;5007765;28;20193;-69
2023/02/12 01:06:24;;;;;;;1.13;1.07;;;1.80;60.20;;;;;;5014031;28;20185;-70
2023/02/12 01:08:51;;;;;;;1.57;1.13;;;1.80;60.20;;;;;;5008399;28;20232;-70
2023/02/12 01:11:16;;;;;;;3.50;1.03;;;1.80;60.20;;;;;;5012295;28;20691;-70
2023/02/12 01:13:42;;;;;;;0.77;0.77;;;1.80;60.10;;;;;;5015925;28;20220;-70
2023/02/12 01:16:18;;;;;;;1.43;1.10;;;1.80;60.30;;;;;;5005965;28;20616;-70
2023/02/12 01:18:44;;;;;;;1.10;1.10;;;1.80;60.40;;;;;;5006564;28;20184;-70
2023/02/12 01:21:11;;;;;;;1.27;1.27;;;1.80;60.30;;;;;;5007740;28;20505;-70
2023/02/12 01:23:37;;;;;;;0.80;0.80;;;1.90;60.40;;;;;;5022194;28;20189;-70
2023/02/12 01:26:03;;;;;;;1.03;1.00;;;1.90;60.20;;;;;;5006337;28;20568;-70
2023/02/12 01:28:29;;;;;;;1.10;1.00;;;2.00;60.40;;;;;;5007272;28;20225;-70
2023/02/12 01:30:55;;;;;;;1.03;1.03;;;2.00;60.50;;;;;;5010370;28;21110;-70
2023/02/12 01:33:20;;;;;;;0.93;0.93;;;2.00;60.50;;;;;;5007472;28;20256;-70
2023/02/12 01:35:46;;;;;;;1.63;1.53;;;2.00;60.70;;;;;;5007229;28;20682;-70
2023/02/12 01:38:12;;;;;;;1.50;1.23;;;1.90;60.80;;;;;;5005083;28;20188;-70
2023/02/12 01:40:37;;;;;;;2.03;1.73;;;2.00;61.00;;;;;;5005104;28;20181;-70
2023/02/12 01:43:05;;;;;;;1.37;1.30;;;1.90;61.10;;;;;;5007549;28;20258;-70
2023/02/12 01:45:42;;;;;;;0.97;0.97;;;1.90;61.20;;;;;;5006743;28;20663;-70
2023/02/12 01:48:08;;;;;;;2.43;1.67;;;1.90;61.10;;;;;;5021103;28;20199;-70
2023/02/12 01:50:34;;;;;;;1.03;1.03;;;1.80;61.50;;;;;;5007198;28;20193;-70
2023/02/12 01:53:00;;;;;;;1.30;1.20;;;1.80;61.50;;;;;;5014519;28;20268;-71
2023/02/12 01:55:26;;;;;;;1.50;1.07;;;1.70;61.60;;;;;;5005447;28;20277;-68
2023/02/12 01:57:52;;;;;;;0.73;0.73;;;1.70;61.80;;;;;;5010069;28;20188;-67
2023/02/12 02:00:22;;;;;;;1.67;1.57;;;1.70;61.80;;;;;;4998389;28;20229;-69
2023/02/12 02:02:53;;;;;;;2.93;1.37;;;1.70;61.90;;;;;;5006411;28;20683;-69
2023/02/12 02:05:58;;;;;;;3.53;1.90;;;1.70;61.90;;;;;;5033037;28;20192;-69
2023/02/12 02:08:24;;;;;;;4.20;1.57;;;1.60;62.10;;;;;;5005421;28;20204;-69
2023/02/12 02:10:50;;;;;;;6.93;1.73;;;1.60;62.20;;;;;;5018792;28;20200;-70
2023/02/12 02:16:12;;;;;;;1.27;1.27;;;1.50;62.50;;;;;;5005115;28;20195;-70
2023/02/12 02:18:51;;;;;;;3.20;2.23;;;1.50;62.90;;;;;;4996911;28;20185;-70
2023/02/12 02:21:28;;;;;;;1.50;1.50;;;1.50;63.00;;;;;;5018863;28;20195;-70
2023/02/12 02:24:20;;;;;;;1.47;1.47;;;1.40;63.30;;;;;;5013280;28;20197;-70
2023/02/12 02:27:00;;;;;;;2.30;1.43;;;1.30;63.90;;;;;;5003491;28;20196;-71
2023/02/12 02:29:52;;;;;;;2.00;1.67;;;1.30;63.90;;;;;;5004330;28;20218;-70
2023/02/12 02:32:28;;;;;;;1.63;1.37;;;1.20;64.00;;;;;;5000549;28;20248;-70
2023/02/12 02:35:14;;;;;;;1.50;1.40;;;1.20;64.20;;;;;;5014020;28;20267;-70
2023/02/12 02:37:58;;;;;;;2.43;1.53;;;1.20;64.30;;;;;;5010083;28;20188;-70
2023/02/12 02:40:30;;;;;;;5.40;1.97;;;1.10;64.80;;;;;;5001795;28;20980;-71
2023/02/12 02:43:03;;;;;;;2.43;2.10;;;1.00;65.30;;;;;;5005843;28;20268;-71
2023/02/12 02:45:41;;;;;;;3.93;1.50;;;1.00;65.80;;;;;;5014712;28;20191;-70
2023/02/12 02:48:25;;;;;;;1.47;1.37;;;0.90;65.80;;;;;;5005459;28;20187;-70
2023/02/12 02:51:00;;;;;;;1.50;1.40;;;0.90;65.70;;;;;;4996509;28;20674;-70
2023/02/12 02:53:38;;;;;;;4.13;1.63;;;1.00;65.20;;;;;;5010016;28;20257;-70
2023/02/12 02:56:07;;;;;;;1.00;0.97;;;1.10;65.20;;;;;;4996443;28;20688;-70
2023/02/12 02:58:43;;;;;;;1.27;1.17;;;1.20;65.00;;;;;;5005276;28;20192;-70
2023/02/12 03:01:22;;;;;;;2.53;1.47;;;1.20;65.10;;;;;;5007863;28;20184;-70
2023/02/12 03:04:11;;;;;;;1.70;1.60;;;1.20;65.40;;;;;;5010931;28;20270;-68
2023/02/12 03:06:50;;;;;;;4.10;2.63;;;1.20;65.50;;;;;;4971972;28;20213;-70
2023/02/12 03:09:23;;;;;;;2.23;1.70;;;1.20;65.60;;;;;;4983145;28;20236;-70
2023/02/12 03:11:49;;;;;;;2.37;1.67;;;1.20;65.70;;;;;;4959797;28;20206;-70
2023/02/12 03:14:51;;;;;;;2.47;1.73;;;1.30;65.70;;;;;;4962634;28;20798;-70
2023/02/12 03:17:28;;;;;;;2.30;1.63;;;1.30;65.80;;;;;;4905753;29;20215;-70
2023/02/12 03:20:17;;;;;;;2.47;1.77;;;1.30;65.90;;;;;;4905904;29;20685;-70
2023/02/12 03:23:07;;;;;;;2.40;1.83;;;1.30;65.90;;;;;;4907049;29;20200;-69
2023/02/12 03:25:55;;;;;;;1.63;1.53;;;1.30;66.00;;;;;;4913219;29;20196;-70
2023/02/12 03:28:34;;;;;;;2.97;2.27;;;1.40;66.00;;;;;;4905794;29;20299;-70
2023/02/12 03:31:28;;;;;;;3.17;1.30;;;1.40;66.00;;;;;;4905853;29;20251;-70
2023/02/12 03:34:04;;;;;;;2.07;1.90;;;1.40;66.30;;;;;;4890208;29;20207;-69
2023/02/12 03:36:37;;;;;;;4.43;2.80;;;1.40;66.30;;;;;;4905660;29;20770;-69
2023/02/12 03:39:11;;;;;;;2.00;1.93;;;1.40;66.40;;;;;;4905211;29;20639;-70
2023/02/12 03:41:49;;;;;;;2.37;2.27;;;1.40;66.40;;;;;;4905814;29;20274;-69
2023/02/12 03:44:36;;;;;;;2.03;1.93;;;1.40;66.50;;;;;;4932581;28;20253;-70
2023/02/12 03:47:33;;;;;;;1.93;1.80;;;1.40;66.50;;;;;;4943342;28;20199;-70
2023/02/12 03:50:12;;;;;;;2.73;1.53;;;1.40;66.60;;;;;;4949596;28;21060;-70
2023/02/12 03:52:38;;;;;;;1.97;1.60;;;1.40;66.50;;;;;;4963976;28;20247;-70
2023/02/12 03:55:04;;;;;;;5.00;2.10;;;1.40;66.50;;;;;;5007919;28;20566;-70
2023/02/12 03:57:45;;;;;;;3.33;1.80;;;1.40;66.50;;;;;;5023486;28;20585;-70
2023/02/12 04:00:17;;;;;;;2.07;1.90;;;1.50;66.50;;;;;;5007176;28;20721;-71
2023/02/12 04:02:44;;;;;;;2.57;2.03;;;1.50;66.70;;;;;;5011524;28;20184;-70
2023/02/12 04:05:18;;;;;;;2.27;1.93;;;1.50;66.80;;;;;;5010105;28;20292;-70
2023/02/12 04:07:44;;;;;;;2.37;1.77;;;1.50;66.80;;;;;;5010785;28;20210;-70
2023/02/12 04:10:11;;;;;;;2.23;2.03;;;1.50;66.80;;;;;;5015380;28;20209;-70
2023/02/12 04:12:51;;;;;;;3.90;2.17;;;1.60;66.70;;;;;;5012228;28;20264;-70
2023/02/12 04:15:42;;;;;;;2.53;2.33;;;1.60;66.60;;;;;;5003348;28;20247;-70
2023/02/12 04:18:24;;;;;;;3.40;2.17;;;1.60;66.60;;;;;;5004599;28;20239;-70
2023/02/12 04:21:00;;;;;;;2.23;1.87;;;1.60;66.80;;;;;;5010877;28;20242;-69
2023/02/12 04:23:31;;;;;;;4.13;1.77;;;1.60;66.70;;;;;;5011923;28;20576;-69
2023/02/12 04:25:57;;;;;;;3.13;2.80;;;1.60;66.70;;;;;;5007917;28;20169;-69
2023/02/12 04:29:13;;;;;;;1.60;1.60;;;1.60;66.60;;;;;;5007305;28;20200;-68
2023/02/12 04:32:02;;;;;;;3.33;2.20;;;1.70;66.50;;;;;;4948322;28;20211;-71
2023/02/12 04:34:36;;;;;;;1.97;1.87;;;1.60;66.70;;;;;;4954406;28;20207;-70
2023/02/12 04:37:11;;;;;;;2.70;1.70;;;1.60;66.80;;;;;;4955945;28;20197;-70
2023/02/12 04:39:39;;;;;;;2.60;2.40;;;1.60;66.70;;;;;;4955286;28;20588;-70
2023/02/12 04:42:05;;;;;;;4.63;2.37;;;1.60;66.70;;;;;;4954526;28;20228;-70
2023/02/12 04:44:33;;;;;;;1.90;1.80;;;1.60;66.80;;;;;;4935162;29;20194;-67
2023/02/12 04:46:59;;;;;;;2.37;1.80;;;1.70;66.80;;;;;;4930381;29;20222;-70
2023/02/12 04:49:26;;;;;;;1.87;1.60;;;1.60;66.80;;;;;;4946269;28;20265;-70
2023/02/12 04:51:52;;;;;;;2.83;2.23;;;1.60;66.80;;;;;;4950661;28;20225;-70
2023/02/12 04:54:20;;;;;;;1.77;1.70;;;1.60;67.00;;;;;;4946610;28;20230;-70
2023/02/12 04:56:46;;;;;;;2.70;2.50;;;1.60;67.10;;;;;;4947220;28;20187;-70
2023/02/12 04:59:12;;;;;;;2.27;2.17;;;1.60;66.90;;;;;;4947737;28;20211;-70
2023/02/12 05:01:39;;;;;;;1.80;1.70;;;1.60;67.00;;;;;;4948068;28;20242;-70
2023/02/12 05:04:05;;;;;;;2.03;1.83;;;1.60;66.80;;;;;;4946576;28;20220;-70
2023/02/12 05:06:34;;;;;;;1.63;1.53;;;1.60;67.00;;;;;;4980957;28;20595;-71
2023/02/12 05:09:00;;;;;;;1.87;1.87;;;1.70;66.70;;;;;;5017294;28;20205;-70
2023/02/12 05:11:25;;;;;;;2.03;1.93;;;1.70;66.80;;;;;;5018839;28;20202;-70
2023/02/12 05:13:52;;;;;;;4.23;2.03;;;1.70;66.50;;;;;;5014497;28;20189;-70
2023/02/12 05:16:19;;;;;;;2.97;1.47;;;1.70;66.50;;;;;;5009449;28;20185;-70
2023/02/12 05:18:45;;;;;;;3.53;1.57;;;1.70;66.40;;;;;;5006211;28;20198;-70
2023/02/12 05:21:11;;;;;;;2.70;1.90;;;1.70;66.40;;;;;;5002492;28;20181;-71
2023/02/12 05:23:38;;;;;;;2.30;2.10;;;1.70;66.90;;;;;;5002413;28;20236;-71
2023/02/12 05:26:09;;;;;;;6.13;2.00;;;1.70;67.20;;;;;;5005729;28;20208;-70
2023/02/12 05:28:35;;;;;;;2.17;1.97;;;1.70;67.30;;;;;;5003006;28;20212;-71
2023/02/12 05:31:03;;;;;;;4.67;1.27;;;1.60;67.30;;;;;;5005838;28;20458;-71
2023/02/12 05:33:28;;;;;;;2.03;1.93;;;1.60;67.30;;;;;;5006901;28;20552;-71
2023/02/12 05:35:54;;;;;;;1.77;1.63;;;1.60;67.30;;;;;;5010745;28;20184;-71
2023/02/12 05:38:20;;;;;;;1.53;1.43;;;1.60;67.60;;;;;;5006890;28;20200;-71
2023/02/12 05:40:46;;;;;;;1.67;1.50;;;1.60;68.00;;;;;;5008624;28;20193;-71
2023/02/12 05:43:13;;;;;;;4.30;1.57;;;1.60;68.20;;;;;;5006756;28;20181;-70
2023/02/12 05:45:40;;;;;;;1.97;1.87;;;1.60;68.50;;;;;;5012172;28;20186;-71
2023/02/12 05:48:06;;;;;;;1.73;1.63;;;1.60;69.50;;;;;;5004833;28;20223;-71
2023/02/12 05:50:32;;;;;;;1.17;0.97;;;1.60;69.70;;;;;;5010240;28;20216;-71
2023/02/12 05:52:59;;;;;;;1.57;1.37;;;1.50;70.50;;;;;;5014183;28;20263;-71
2023/02/12 05:55:25;;;;;;;1.50;1.40;;;1.40;71.10;;;;;;5006335;28;20261;-71
2023/02/12 05:57:51;;;;;;;3.03;1.43;;;1.40;71.90;;;;;;5005032;28;20625;-70
2023/02/12 06:00:17;;;;;;;1.63;1.53;;;1.40;72.20;;;;;;5006341;28;20203;-70
2023/02/12 06:02:43;;;;;;;2.23;2.13;;;1.30;72.20;;;;;;5006396;28;20655;-70
2023/02/12 06:05:08;;;;;;;1.27;1.27;;;1.30;72.30;;;;;;5012439;28;20188;-70
2023/02/12 06:07:34;;;;;;;3.67;1.60;;;1.20;72.50;;;;;;5006801;28;20204;-70
2023/02/12 06:10:00;;;;;;;1.40;1.40;;;1.20;73.00;;;;;;5006014;28;20763;-70
2023/02/12 06:12:25;;;;;;;1.87;1.47;;;1.20;73.40;;;;;;5006731;28;20728;-70
2023/02/12 06:14:51;;;;;;;4.27;1.70;;;1.20;73.90;;;;;;5006525;28;20730;-70
2023/02/12 06:17:16;;;;;;;1.77;0.93;;;1.20;74.80;;;;;;5010158;28;20200;-70
2023/02/12 06:19:42;;;;;;;1.47;1.43;;;1.20;75.10;;;;;;5009724;28;20196;-69
2023/02/12 06:22:08;;;;;;;1.53;1.43;;;1.20;75.50;;;;;;5008966;28;20192;-70
2023/02/12 06:24:34;;;;;;;2.13;1.40;;;1.20;76.20;;;;;;5002352;28;20589;-70
2023/02/12 06:26:59;;;;;;;1.07;1.07;;;1.20;76.60;;;;;;5003686;28;20689;-70
2023/02/12 06:29:25;;;;;;;3.17;1.63;;;1.20;76.60;;;;;;5008341;28;20204;-71
2023/02/12 06:31:50;;;;;;;2.23;1.27;;;1.30;77.00;;;;;;5007038;28;20234;-70
2023/02/12 06:34:17;;;;;;;2.13;1.30;;;1.30;77.50;;;;;;5001602;28;20188;-70
2023/02/12 06:36:44;;;;;;;1.40;1.20;;;1.30;79.00;;;;;;5011749;28;20224;-71
2023/02/12 06:39:11;;;;;;;3.30;1.00;;;1.20;79.60;;;;;;5006055;28;20264;-70
2023/02/12 06:41:37;;;;;;;0.77;0.77;;;1.20;80.00;;;;;;5007166;28;20597;-70
2023/02/12 06:44:03;;;;;;;0.97;0.97;;;1.20;80.40;;;;;;5003379;28;20180;-70
2023/02/12 06:46:30;;;;;;;2.40;1.77;;;1.10;80.70;;;;;;5005662;28;20615;-69
2023/02/12 06:48:57;;;;;;;1.47;1.30;;;1.10;81.30;;;;;;5006865;28;20209;-72
2023/02/12 06:51:24;;;;;;;1.50;1.40;;;1.00;81.70;;;;;;5006510;28;20231;-70
2023/02/12 06:53:51;;;;;;;0.60;0.53;;;1.00;81.90;;;;;;5006392;28;20191;-68
2023/02/12 06:56:18;;;;;;;2.03;1.63;;;1.00;82.10;;;;;;5009448;28;20189;-70
2023/02/12 06:58:47;;;;;;;2.30;2.10;;;1.00;82.20;;;;;;5006427;28;20197;-70
2023/02/12 07:01:22;;;;;;;1.63;1.50;;;1.00;82.20;;;;;;5003215;28;20833;-71
2023/02/12 07:03:53;;;;;;;1.23;1.13;;;1.10;81.90;;;;;;5005311;28;20208;-71
2023/02/12 07:06:19;;;;;;;0.83;0.83;;;1.10;82.00;;;;;;5005090;28;20192;-70
2023/02/12 07:08:45;;;;;;;1.40;1.30;;;1.20;81.10;;;;;;4999966;28;20205;-70
2023/02/12 07:11:11;;;;;;;1.30;1.20;;;1.30;80.90;;;;;;5002162;28;20193;-70
2023/02/12 07:13:39;;;;;;;0.90;0.90;;;1.30;80.70;;;;;;5002131;28;20181;-69
2023/02/12 07:16:06;;;;;;;1.00;1.00;;;1.30;80.40;;;;;;5005229;28;20173;-70
2023/02/12 07:18:33;;;;;;;0.77;0.73;;;1.40;80.50;;;;;;5009677;28;20177;-69
2023/02/12 07:20:59;;;;;;;1.37;1.27;;;1.40;80.50;;;;;;5017929;28;20203;-69
2023/02/12 07:23:25;;;;;;;1.60;1.50;;;1.40;80.30;;;;;;5009658;28;20180;-70
2023/02/12 07:26:10;;;;;;;1.60;1.20;;;1.40;80.40;;;;;;5010335;28;20199;-70
2023/02/12 07:28:36;;;;;;;2.10;1.27;;;1.50;80.40;;;;;;5002513;28;20192;-71
2023/02/12 07:31:13;;;;;;;1.93;1.70;;;1.50;80.60;;;;;;5003982;28;20189;-71
2023/02/12 07:33:40;;;;;;;1.07;1.07;;;1.60;80.20;;;;;;5003165;28;20188;-70
2023/02/12 07:36:08;;;;;;;1.80;1.20;;;1.60;80.00;;;;;;5003891;28;20200;-71
2023/02/12 07:38:38;;;;;;;1.87;0.80;;;1.70;79.80;;;;;;5006916;28;20203;-71
2023/02/12 07:41:07;;;;;;;1.77;1.50;;;1.70;79.60;;;;;;5002681;28;20678;-70
2023/02/12 07:43:32;;;;;;;1.43;1.33;;;1.70;79.80;;;;;;5004264;28;20192;-70
2023/02/12 07:46:20;;;;;;;1.23;1.17;;;1.70;80.00;;;;;;5004197;28;20184;-70
2023/02/12 07:48:47;;;;;;;2.77;1.57;;;1.70;79.90;;;;;;5004548;28;20201;-70
2023/02/12 07:51:15;;;;;;;1.67;1.57;;;1.80;79.90;;;;;;5003782;28;20565;-70
2023/02/12 07:53:41;;;;;;;3.00;1.70;;;1.80;80.00;;;;;;5010753;28;20225;-71
2023/02/12 07:56:13;;;;;;;2.40;1.77;;;1.90;80.00;;;;;;5005137;28;20181;-71
2023/02/12 07:58:41;;;;;;;2.00;1.77;;;1.90;80.30;;;;;;5012354;28;20271;-71
2023/02/12 08:01:31;;;;;;;1.83;1.33;;;1.90;80.10;;;;;;5018830;28;20188;-70
2023/02/12 08:03:59;;;;;;;1.13;1.13;;;1.90;80.40;;;;;;5001158;28;20254;-69
2023/02/12 08:06:28;;;;;;;1.70;1.60;;;1.90;80.10;;;;;;5003965;28;20319;-70
2023/02/12 08:08:56;;;;;;;3.93;2.33;;;1.90;80.30;;;;;;5003694;28;20607;-72
2023/02/12 08:11:23;;;;;;;2.07;1.80;;;1.90;80.50;;;;;;5005329;28;20193;-70
2023/02/12 08:13:50;;;;;;;1.40;1.00;;;1.90;80.00;;;;;;5000585;28;20753;-70
2023/02/12 08:16:22;;;;;;;1.97;1.40;;;2.00;79.90;;;;;;5010039;28;20216;-70
2023/02/12 08:18:48;;;;;;;1.47;1.37;;;2.00;79.90;;;;;;5003920;28;20216;-69
2023/02/12 08:21:22;;;;;;;3.27;1.40;;;2.00;80.20;;;;;;5004199;28;20600;-67
2023/02/12 08:23:49;;;;;;;2.07;1.43;;;2.00;80.10;;;;;;5004811;28;20192;-70
2023/02/12 08:26:30;;;;;;;2.13;1.30;;;2.00;79.90;;;;;;5007096;28;20178;-70
2023/02/12 08:29:02;;;;;;;3.30;2.27;;;2.00;80.40;;;;;;5003558;28;20292;-69
2023/02/12 08:31:29;;;;;;;2.17;1.73;;;2.00;80.50;;;;;;5002896;28;20192;-72
2023/02/12 08:33:56;;;;;;;3.73;2.33;;;1.90;80.40;;;;;;5004846;28;20953;-70
2023/02/12 08:36:27;;;;;;;2.73;2.00;;;1.90;80.50;;;;;;5004329;28;20189;-70
2023/02/12 08:38:56;;;;;;;2.53;2.30;;;1.80;80.50;;;;;;5006661;28;20189;-70
2023/02/12 08:41:24;;;;;;;2.13;2.00;;;1.80;80.80;;;;;;5014878;28;20768;-74
2023/02/12 08:43:53;;;;;;;1.77;1.67;;;1.80;81.10;;;;;;5008596;28;20243;-73
2023/02/12 08:46:21;;;;;;;1.83;1.73;;;1.70;81.30;;;;;;5021174;28;20576;-70
2023/02/12 08:48:47;;;;;;;2.93;2.37;;;1.70;81.60;;;;;;5010734;28;20192;-70
2023/02/12 08:51:18;;;;;;;3.97;2.27;;;1.70;81.70;;;;;;5015538;28;20549;-69
2023/02/12 08:53:47;;;;;;;2.17;2.03;;;1.60;81.80;;;;;;5001040;28;20319;-69
2023/02/12 08:56:14;;;;;;;4.03;2.93;;;1.60;82.10;;;;;;5003394;28;20185;-71
2023/02/12 08:58:41;;;;;;;3.07;2.87;;;1.60;82.60;;;;;;5009331;28;20205;-70
2023/02/12 09:01:14;;;;;;;2.17;1.73;;;1.60;82.50;;;;;;5003831;28;20561;-70
2023/02/12 09:03:40;;;;;;;1.60;1.50;;;1.60;82.90;;;;;;5001953;28;20192;-70
2023/02/12 09:06:08;;;;;;;1.97;1.90;;;1.60;83.00;;;;;;5004966;28;20251;-70
2023/02/12 09:08:34;;;;;;;1.70;1.60;;;1.60;82.90;;;;;;5005874;28;20177;-70
2023/02/12 09:11:07;;;;;;;1.47;1.37;;;1.70;82.50;;;;;;5006563;28;20598;-70
2023/02/12 09:13:33;;;;;;;1.77;1.57;;;1.70;82.60;;;;;;5005090;28;20185;-70
2023/02/12 09:16:01;;;;;;;1.73;1.63;;;1.70;82.60;;;;;;5004981;28;20276;-70
2023/02/12 09:18:27;;;;;;;1.73;1.63;;;1.70;82.80;;;;;;5007290;28;20184;-71
2023/02/12 09:20:53;;;;;;;1.13;1.13;;;1.70;82.90;;;;;;5004111;28;20173;-69
2023/02/12 09:23:19;;;;;;;4.50;1.67;;;1.70;83.20;;;;;;5006808;28;20189;-69
2023/02/12 09:25:46;;;;;;;1.90;1.80;;;1.70;83.30;;;;;;5004996;28;20185;-70
2023/02/12 09:28:13;;;;;;;2.53;1.60;;;1.60;83.60;;;;;;5005902;28;20264;-71
2023/02/12 09:30:39;;;;;;;2.67;2.30;;;1.70;83.40;;;;;;5005698;28;20247;-70
2023/02/12 09:33:06;;;;;;;2.67;1.70;;;1.70;83.40;;;;;;5003202;28;20223;-70
2023/02/12 09:35:38;;;;;;;2.13;1.67;;;1.70;83.50;;;;;;5006035;28;20208;-70
2023/02/12 09:38:06;;;;;;;1.67;1.57;;;1.80;83.20;;;;;;5002937;28;20212;-70
2023/02/12 09:40:39;;;;;;;1.97;1.87;;;1.80;83.30;;;;;;5006182;28;20196;-70
2023/02/12 09:43:07;;;;;;;1.70;1.60;;;1.80;83.30;;;;;;5005420;28;20173;-70
2023/02/12 09:45:39;;;;;;;2.00;1.90;;;1.70;83.70;;;;;;5001919;28;20181;-70
2023/02/12 09:48:33;;;;;;;2.87;1.43;;;1.80;83.60;;;;;;5003490;28;20196;-70
2023/02/12 09:51:04;;;;;;;4.43;1.30;;;1.70;83.70;;;;;;5003965;28;20203;-70
2023/02/12 09:53:31;;;;;;;2.50;2.33;;;1.70;83.80;;;;;;5005045;28;20273;-69
2023/02/12 09:55:57;;;;;;;1.50;1.50;;;1.80;83.50;;;;;;5004502;28;20177;-69
2023/02/12 09:58:34;;;;;;;2.60;2.50;;;1.80;83.40;;;;;;5017064;28;20184;-70
2023/02/12 10:01:08;;;;;;;7.80;2.00;;;1.80;83.40;;;;;;5004564;28;20189;-70
2023/02/12 10:03:34;;;;;;;2.53;1.83;;;1.80;83.30;;;;;;5008446;28;20574;-72
2023/02/12 10:06:30;;;;;;;2.23;2.03;;;1.90;83.40;;;;;;5010409;28;20179;-70
2023/02/12 10:09:06;;;;;;;2.77;1.80;;;2.00;83.20;;;;;;4995889;28;20281;-71
2023/02/12 10:12:02;;;;;;;2.13;2.03;;;2.00;83.20;;;;;;5005612;28;20191;-69
2023/02/12 10:14:29;;;;;;;2.00;1.90;;;2.10;82.90;;;;;;5005209;28;20224;-70
2023/02/12 10:17:12;;;;;;;2.07;1.97;;;2.20;82.60;;;;;;5001169;28;20181;-72
2023/02/12 10:19:59;;;;;;;2.73;2.17;;;2.20;82.30;;;;;;5005955;28;20196;-69
2023/02/12 10:22:59;;;;;;;6.17;2.80;;;2.20;82.30;;;;;;5005417;28;20173;-73
2023/02/12 10:25:52;;;;;;;2.67;2.27;;;2.30;82.30;;;;;;5005658;28;20204;-71
2023/02/12 10:28:24;;;;;;;3.83;3.47;;;2.40;82.20;;;;;;4999643;28;20574;-72
2023/02/12 10:31:10;;;;;;;4.37;2.87;;;2.60;82.10;;;;;;5005275;28;20204;-77
2023/02/12 10:33:42;;;;;;;4.73;3.27;;;2.80;81.50;;;;;;5003633;28;20185;-73
2023/02/12 10:36:38;;;;;;;9.07;3.00;;;3.00;80.70;;;;;;5004543;28;20703;-71
2023/02/12 10:39:13;;;;;;;3.30;2.90;;;3.10;79.90;;;;;;5004885;28;20189;-72
2023/02/12 10:41:48;;;;;;;5.93;2.87;;;3.20;79.70;;;;;;5005370;28;20173;-73
2023/02/12 10:44:14;;;;;;;4.57;3.67;;;3.30;79.70;;;;;;5005545;28;20183;-71
2023/02/12 10:46:40;;;;;;;6.50;3.37;;;3.30;79.50;;;;;;5005811;28;20188;-72
2023/02/12 10:49:09;;;;;;;3.50;3.20;;;3.30;79.30;;;;;;5005534;28;20208;-73
2023/02/12 10:52:04;;;;;;;3.73;3.43;;;3.30;79.50;;;;;;5007825;28;20177;-73
2023/02/12 10:54:38;;;;;;;3.10;2.80;;;3.30;79.30;;;;;;4918799;29;20233;-73
2023/02/12 10:57:26;;;;;;;4.47;3.93;;;3.20;79.50;;;;;;4928088;29;20191;-73
2023/02/12 10:59:56;;;;;;;3.77;3.20;;;3.20;79.90;;;;;;4922815;28;20958;-75
2023/02/12 11:02:32;;;;;;;9.10;3.90;;;3.30;79.80;;;;;;4927519;29;20754;-73
2023/02/12 11:05:00;;;;;;;3.67;3.07;;;3.30;79.70;;;;;;4944726;28;20719;-73
2023/02/12 11:07:44;;;;;;;4.17;3.03;;;3.40;79.80;;;;;;4940312;29;20179;-73
2023/02/12 11:10:24;;;;;;;5.70;3.50;;;3.60;79.30;;;;;;4938299;28;20226;-74
2023/02/12 11:12:50;;;;;;;3.17;2.83;;;3.70;78.90;;;;;;4922515;28;20901;-72
2023/02/12 11:15:23;;;;;;;6.07;3.27;;;3.80;78.80;;;;;;4939935;29;20194;-70
2023/02/12 11:18:07;;;;;;;2.87;2.53;;;3.80;78.40;;;;;;4939755;28;20198;-71
2023/02/12 11:20:32;;;;;;;3.80;3.50;;;3.90;78.40;;;;;;4944990;28;20213;-72
2023/02/12 11:23:02;;;;;;;3.47;3.00;;;3.90;78.40;;;;;;4941781;29;20195;-70
2023/02/12 11:25:30;;;;;;;4.80;2.73;;;4.00;78.00;;;;;;4936938;28;20250;-70
2023/02/12 11:28:12;;;;;;;5.97;3.67;;;3.90;78.10;;;;;;4943734;28;20302;-70
2023/02/12 11:30:48;;;;;;;6.23;3.10;;;3.80;78.40;;;;;;4958548;28;20327;-70
2023/02/12 11:33:27;;;;;;;5.43;4.03;;;3.90;78.40;;;;;;5003199;28;20650;-70
2023/02/12 11:36:12;;;;;;;3.90;3.43;;;4.00;78.10;;;;;;5002562;28;20185;-71
2023/02/12 11:38:47;;;;;;;3.30;3.00;;;4.10;77.40;;;;;;5000075;28;20181;-71
2023/02/12 11:41:38;;;;;;;3.77;3.40;;;4.10;77.30;;;;;;5005036;28;20662;-71
2023/02/12 11:44:19;;;;;;;6.93;4.07;;;4.20;77.10;;;;;;5006063;28;20802;-71
2023/02/12 11:47:13;;;;;;;4.97;3.37;;;4.20;77.10;;;;;;5009991;28;20670;-71
2023/02/12 11:49:47;;;;;;;4.70;3.37;;;4.30;77.10;;;;;;5002206;28;20216;-71
2023/02/12 11:52:31;;;;;;;7.10;4.57;;;4.50;76.80;;;;;;5006281;28;20184;-72
2023/02/12 11:55:22;;;;;;;5.70;4.10;;;4.60;76.60;;;;;;5003136;28;20187;-70
2023/02/12 11:57:53;;;;;;;4.10;3.67;;;4.70;76.60;;;;;;4959620;28;20198;-70
2023/02/12 12:00:31;;;;;;;5.60;3.87;;;4.90;75.70;;;;;;4973526;28;20202;-70
2023/02/12 12:03:18;;;;;;;5.20;4.53;;;5.10;75.30;;;;;;4963642;28;20225;-69
2023/02/12 12:05:51;;;;;;;4.27;3.10;;;5.20;75.00;;;;;;4953957;28;20190;-70
2023/02/12 12:08:37;;;;;;;6.33;3.97;;;5.20;74.50;;;;;;4960673;28;20286;-69
2023/02/12 12:11:23;;;;;;;3.57;3.27;;;5.20;74.30;;;;;;4958110;28;20201;-70
2023/02/12 12:14:07;;;;;;;5.07;3.17;;;5.20;74.80;;;;;;4969629;28;20185;-71
2023/02/12 12:20:01;;;;;;;5.80;3.57;;;5.10;74.40;;;;;;4968977;28;20282;-70
2023/02/12 12:22:45;;;;;;;5.37;4.30;;;4.90;74.80;;;;;;4964399;28;20313;-70
2023/02/12 12:25:22;;;;;;;7.13;4.40;;;4.80;75.10;;;;;;4961381;28;20203;-70
2023/02/12 12:28:16;;;;;;;5.83;3.17;;;4.70;75.10;;;;;;4964591;28;20679;-69
2023/02/12 12:30:57;;;;;;;4.10;3.80;;;4.70;75.40;;;;;;4958616;28;20252;-70
2023/02/12 12:34:02;;;;;;;3.50;3.20;;;4.70;75.30;;;;;;4965572;28;20222;-70
2023/02/12 12:36:59;;;;;;;5.63;4.00;;;4.70;75.40;;;;;;4929613;29;20300;-70
2023/02/12 12:39:32;;;;;;;4.87;3.50;;;4.80;75.30;;;;;;4942939;28;20187;-70
2023/02/12 12:42:31;;;;;;;7.47;3.83;;;4.80;75.20;;;;;;4945409;28;20195;-70
2023/02/12 12:45:04;;;;;;;6.30;3.97;;;4.80;75.20;;;;;;4940007;28;20590;-70
2023/02/12 12:47:38;;;;;;;4.97;3.73;;;4.90;75.20;;;;;;4930981;29;20191;-70
2023/02/12 12:50:42;;;;;;;3.03;2.67;;;4.90;74.90;;;;;;4940515;28;20277;-70
2023/02/12 12:53:10;;;;;;;4.30;3.57;;;4.90;74.90;;;;;;4941305;28;20749;-70
2023/02/12 12:55:59;;;;;;;4.30;3.13;;;4.90;74.80;;;;;;4942518;28;20187;-70
2023/02/12 12:58:42;;;;;;;4.50;4.00;;;4.60;75.50;;;;;;4945546;28;20310;-70
2023/02/12 13:01:50;;;;;;;5.27;4.77;;;4.60;75.80;;;;;;4945604;28;20203;-70
2023/02/12 13:04:30;;;;;;;6.20;4.17;;;4.60;75.80;;;;;;4937842;29;20242;-69
2023/02/12 13:07:06;;;;;;;6.37;4.60;;;4.60;75.90;;;;;;4936378;29;20198;-70
2023/02/12 13:09:46;;;;;;;6.10;4.03;;;4.60;76.10;;;;;;4944064;29;20230;-70
2023/02/12 13:12:37;;;;;;;4.97;3.37;;;4.70;76.00;;;;;;4966824;28;20208;-69
2023/02/12 13:15:15;;;;;;;3.60;3.30;;;4.80;75.80;;;;;;5002175;28;20274;-70
2023/02/12 13:17:44;;;;;;;6.80;3.93;;;4.60;75.70;;;;;;5010569;28;20211;-70
2023/02/12 13:20:25;;;;;;;5.43;4.30;;;4.60;75.90;;;;;;5012526;28;20184;-70
2023/02/12 13:22:59;;;;;;;3.60;3.40;;;4.60;75.90;;;;;;5006102;28;20184;-72
2023/02/12 13:25:50;;;;;;;4.67;4.27;;;4.60;76.00;;;;;;5004482;28;20275;-72
2023/02/12 13:28:39;;;;;;;6.83;4.13;;;4.50;76.10;;;;;;5003095;28;20199;-72
2023/02/12 13:31:11;;;;;;;6.20;4.00;;;4.30;76.90;;;;;;5019960;28;20225;-71
2023/02/12 13:33:49;;;;;;;5.07;3.60;;;4.20;77.00;;;;;;5004416;28;20235;-71